createdAt,value
2023-06-01T00:00:57.820Z,96895.75
2023-06-01T00:03:24.803Z,96899.25
2023-06-01T00:05:52.115Z,96892.47
2023-06-01T00:08:18.889Z,96893.41
2023-06-01T00:10:45.728Z,96902.06
2023-06-01T00:13:12.450Z,96899.53
2023-06-01T00:15:38.980Z,96885.78
2023-06-01T00:18:06.936Z,96891.84
2023-06-01T00:20:33.700Z,96895.28
2023-06-01T00:23:00.671Z,96894.47
2023-06-01T00:25:27.937Z,96895.34
2023-06-01T00:27:54.479Z,96885.09
2023-06-01T00:30:21.119Z,96899.72
2023-06-01T00:32:47.796Z,96894.69
2023-06-01T00:35:14.390Z,96890.41
2023-06-01T00:37:40.939Z,96897.28
2023-06-01T00:40:07.973Z,96884.44
2023-06-01T00:42:34.561Z,96887.06
2023-06-01T00:45:01.091Z,96881.00
2023-06-01T00:47:27.841Z,96875.94
2023-06-01T00:49:54.588Z,96874.22
2023-06-01T00:52:23.249Z,96879.38
2023-06-01T00:54:49.992Z,96869.09
2023-06-01T00:57:17.449Z,96869.09
2023-06-01T00:59:44.102Z,96874.22
2023-06-01T01:02:14.654Z,96869.97
2023-06-01T01:04:41.985Z,96872.53
2023-06-01T01:07:27.301Z,96873.44
2023-06-01T01:10:05.276Z,96872.59
2023-06-01T01:12:50.759Z,96871.72
2023-06-01T01:15:27.028Z,96868.28
2023-06-01T01:18:06.535Z,96876.06
2023-06-01T01:20:39.797Z,96878.59
2023-06-01T01:23:15.194Z,96881.22
2023-06-01T01:26:10.093Z,96879.50
2023-06-01T01:28:43.061Z,96878.69
2023-06-01T01:31:13.684Z,96875.22
2023-06-01T01:33:42.293Z,96865.84
2023-06-01T01:36:10.689Z,96867.56
2023-06-01T01:38:38.446Z,96873.56
2023-06-01T01:41:05.904Z,96874.44
2023-06-01T01:43:32.864Z,96875.28
2023-06-01T01:46:26.723Z,96875.34
2023-06-01T01:49:10.818Z,96868.47
2023-06-01T01:52:08.622Z,96863.38
2023-06-01T01:54:42.849Z,96863.44
2023-06-01T01:57:10.021Z,96860.06
2023-06-01T01:59:37.290Z,96855.81
2023-06-01T02:02:04.379Z,96855.81
2023-06-01T02:04:31.512Z,96854.97
2023-06-01T02:06:58.409Z,96847.31
2023-06-01T02:09:24.954Z,96845.59
2023-06-01T02:11:51.567Z,96843.91
2023-06-01T02:14:18.175Z,96846.47
2023-06-01T02:16:45.615Z,96845.63
2023-06-01T02:19:12.346Z,96839.69
2023-06-01T02:21:39.062Z,96841.38
2023-06-01T02:24:07.787Z,96843.97
2023-06-01T02:26:34.911Z,96842.28
2023-06-01T02:29:06.563Z,96842.31
2023-06-01T02:31:34.281Z,96844.88
2023-06-01T02:34:00.913Z,96841.44
2023-06-01T02:36:30.622Z,96839.72
2023-06-01T02:38:57.596Z,96842.31
2023-06-01T02:41:24.956Z,96827.78
2023-06-01T02:43:51.815Z,96824.38
2023-06-01T02:46:19.309Z,96834.69
2023-06-01T02:48:46.950Z,96827.88
2023-06-01T02:51:13.688Z,96828.72
2023-06-01T02:53:41.160Z,96833.88
2023-06-01T02:56:07.957Z,96823.59
2023-06-01T02:58:34.513Z,96827.88
2023-06-01T03:01:01.889Z,96826.16
2023-06-01T03:03:29.040Z,96834.72
2023-06-01T03:05:56.994Z,96819.31
2023-06-01T03:08:25.975Z,96823.59
2023-06-01T03:10:52.466Z,96833.03
2023-06-01T03:13:19.107Z,96821.03
2023-06-01T03:15:45.976Z,96821.91
2023-06-01T03:18:12.715Z,96821.91
2023-06-01T03:20:39.240Z,96824.47
2023-06-01T03:23:05.685Z,96821.91
2023-06-01T03:25:32.141Z,96829.59
2023-06-01T03:27:58.662Z,96829.63
2023-06-01T03:30:25.251Z,96836.47
2023-06-01T03:32:52.265Z,96833.91
2023-06-01T03:35:19.112Z,96841.59
2023-06-01T03:37:47.389Z,96832.19
2023-06-01T03:40:13.948Z,96840.78
2023-06-01T03:42:47.489Z,96833.06
2023-06-01T03:45:16.653Z,96844.19
2023-06-01T03:47:43.365Z,96846.75
2023-06-01T03:50:11.152Z,96845.03
2023-06-01T03:52:38.557Z,96849.31
2023-06-01T03:55:09.330Z,96844.22
2023-06-01T03:57:37.007Z,96836.50
2023-06-01T04:00:20.003Z,96845.91
2023-06-01T04:02:49.495Z,96845.91
2023-06-01T04:05:18.267Z,96842.50
2023-06-01T04:07:50.131Z,96836.50
2023-06-01T04:10:18.040Z,96844.19
2023-06-01T04:12:45.972Z,96847.59
2023-06-01T04:15:13.926Z,96848.47
2023-06-01T04:17:42.152Z,96843.34
2023-06-01T04:20:13.274Z,96843.34
2023-06-01T04:22:40.872Z,96845.06
2023-06-01T04:25:09.740Z,96844.19
2023-06-01T04:27:37.816Z,96845.88
2023-06-01T04:30:08.442Z,96850.16
2023-06-01T04:32:36.336Z,96851.03
2023-06-01T04:35:06.276Z,96847.59
2023-06-01T04:37:40.346Z,96849.28
2023-06-01T04:40:09.280Z,96848.41
2023-06-01T04:42:50.673Z,96851.03
2023-06-01T04:45:17.999Z,96850.13
2023-06-01T04:47:46.575Z,96846.69
2023-06-01T04:50:13.971Z,96845.84
2023-06-01T04:52:42.041Z,96845.78
2023-06-01T04:55:10.375Z,96855.19
2023-06-01T04:57:40.121Z,96848.31
2023-06-01T05:00:12.393Z,96844.88
2023-06-01T05:02:40.992Z,96851.69
2023-06-01T05:05:09.089Z,96852.50
2023-06-01T05:07:37.635Z,96855.00
2023-06-01T05:10:07.059Z,96849.84
2023-06-01T05:12:35.211Z,96854.09
2023-06-01T05:15:03.877Z,96850.59
2023-06-01T05:17:30.528Z,96845.41
2023-06-01T05:19:58.407Z,96839.31
2023-06-01T05:22:25.461Z,96849.53
2023-06-01T05:24:52.128Z,96855.53
2023-06-01T05:27:18.961Z,96843.38
2023-06-01T05:29:45.618Z,96846.72
2023-06-01T05:32:13.275Z,96847.47
2023-06-01T05:34:39.922Z,96844.78
2023-06-01T05:37:06.577Z,96834.41
2023-06-01T05:39:34.430Z,96843.75
2023-06-01T05:42:00.987Z,96841.00
2023-06-01T05:44:30.381Z,96833.13
2023-06-01T05:46:56.955Z,96833.88
2023-06-01T05:49:23.577Z,96828.63
2023-06-01T05:51:50.647Z,96830.28
2023-06-01T05:54:17.293Z,96827.66
2023-06-01T05:56:43.887Z,96845.59
2023-06-01T05:59:10.447Z,96839.44
2023-06-01T06:01:37.522Z,96828.13
2023-06-01T06:04:04.943Z,96828.00
2023-06-01T06:06:32.678Z,96833.84
2023-06-01T06:08:59.838Z,96824.19
2023-06-01T06:11:27.221Z,96823.22
2023-06-01T06:13:54.266Z,96829.09
2023-06-01T06:16:21.064Z,96819.50
2023-06-01T06:18:48.830Z,96822.69
2023-06-01T06:21:18.241Z,96832.00
2023-06-01T06:23:46.173Z,96819.75
2023-06-01T06:26:12.845Z,96822.03
2023-06-01T06:28:39.554Z,96828.66
2023-06-01T06:31:06.076Z,96833.69
2023-06-01T06:33:32.668Z,96831.66
2023-06-01T06:35:59.261Z,96827.88
2023-06-01T06:38:25.959Z,96828.44
2023-06-01T06:40:52.775Z,96828.16
2023-06-01T06:43:19.365Z,96832.09
2023-06-01T06:45:45.905Z,96832.66
2023-06-01T06:48:12.545Z,96834.00
2023-06-01T06:50:39.553Z,96826.72
2023-06-01T06:53:06.466Z,96825.44
2023-06-01T06:55:32.986Z,96818.38
2023-06-01T06:57:59.554Z,96829.00
2023-06-01T07:00:27.107Z,96828.59
2023-06-01T07:02:53.947Z,96828.31
2023-06-01T07:05:20.895Z,96828.03
2023-06-01T07:07:47.861Z,96828.59
2023-06-01T07:10:14.590Z,96824.06
2023-06-01T07:12:42.707Z,96826.34
2023-06-01T07:15:09.545Z,96829.50
2023-06-01T07:17:37.024Z,96818.03
2023-06-01T07:20:07.531Z,96824.56
2023-06-01T07:22:34.908Z,96826.06
2023-06-01T07:25:01.751Z,96823.41
2023-06-01T07:27:28.398Z,96827.47
2023-06-01T07:29:57.083Z,96822.38
2023-06-01T07:32:24.949Z,96816.16
2023-06-01T07:34:52.286Z,96816.16
2023-06-01T07:37:23.007Z,96814.78
2023-06-01T07:39:50.441Z,96819.84
2023-06-01T07:42:17.143Z,96806.50
2023-06-01T07:44:44.193Z,96817.47
2023-06-01T07:47:10.814Z,96814.53
2023-06-01T07:49:37.479Z,96815.09
2023-06-01T07:52:05.483Z,96815.63
2023-06-01T07:54:36.014Z,96817.97
2023-06-01T07:57:04.181Z,96813.31
2023-06-01T07:59:31.543Z,96806.09
2023-06-01T08:01:58.414Z,96817.94
2023-06-01T08:04:25.709Z,96812.47
2023-06-01T08:06:54.126Z,96811.00
2023-06-01T08:09:24.752Z,96820.13
2023-06-01T08:11:51.514Z,96817.22
2023-06-01T08:14:19.905Z,96816.28
2023-06-01T08:16:46.777Z,96813.31
2023-06-01T08:19:13.387Z,96813.31
2023-06-01T08:21:42.332Z,96817.34
2023-06-01T08:24:13.739Z,96807.88
2023-06-01T08:26:40.849Z,96816.31
2023-06-01T08:29:07.340Z,96806.47
2023-06-01T08:31:34.166Z,96813.00
2023-06-01T08:34:00.930Z,96801.31
2023-06-01T08:36:27.398Z,96799.94
2023-06-01T08:38:56.945Z,96809.69
2023-06-01T08:41:37.501Z,96789.94
2023-06-01T08:44:06.938Z,96797.09
2023-06-01T08:46:35.615Z,96801.03
2023-06-01T08:49:02.772Z,96798.25
2023-06-01T08:51:34.338Z,96792.69
2023-06-01T08:54:04.705Z,96786.56
2023-06-01T08:56:32.954Z,96801.25
2023-06-01T08:59:01.446Z,96796.53
2023-06-01T09:01:28.872Z,96789.16
2023-06-01T09:03:55.550Z,96791.06
2023-06-01T09:06:22.464Z,96785.53
2023-06-01T09:08:49.130Z,96780.91
2023-06-01T09:11:15.679Z,96788.63
2023-06-01T09:13:42.966Z,96785.84
2023-06-01T09:16:09.704Z,96778.44
2023-06-01T09:18:37.476Z,96770.59
2023-06-01T09:21:14.409Z,96778.44
2023-06-01T09:23:42.539Z,96782.13
2023-06-01T09:26:11.493Z,96777.63
2023-06-01T09:28:57.345Z,96774.84
2023-06-01T09:31:36.427Z,96771.41
2023-06-01T09:34:03.247Z,96770.81
2023-06-01T09:36:29.775Z,96761.41
2023-06-01T09:39:06.940Z,96766.34
2023-06-01T09:41:51.949Z,96759.56
2023-06-01T09:44:32.765Z,96765.41
2023-06-01T09:47:02.560Z,96765.63
2023-06-01T09:49:33.532Z,96765.56
2023-06-01T09:52:06.159Z,96770.03
2023-06-01T09:54:33.870Z,96767.47
2023-06-01T09:57:10.613Z,96772.16
2023-06-01T09:59:39.789Z,96764.78
2023-06-01T10:02:08.994Z,96761.09
2023-06-01T10:04:42.239Z,96752.91
2023-06-01T10:07:09.512Z,96751.69
2023-06-01T10:09:39.931Z,96749.91
2023-06-01T10:12:07.022Z,96750.53
2023-06-01T10:14:34.721Z,96743.88
2023-06-01T10:17:01.759Z,96737.13
2023-06-01T10:19:28.543Z,96738.41
2023-06-01T10:21:58.110Z,96733.25
2023-06-01T10:24:25.053Z,96742.16
2023-06-01T10:27:00.129Z,96735.63
2023-06-01T10:29:30.309Z,96728.00
2023-06-01T10:31:58.669Z,96725.22
2023-06-01T10:34:37.375Z,96728.50
2023-06-01T10:37:04.357Z,96725.63
2023-06-01T10:39:32.497Z,96721.91
2023-06-01T10:42:20.272Z,96719.34
2023-06-01T10:44:48.936Z,96723.50
2023-06-01T10:47:21.583Z,96717.53
2023-06-01T10:49:48.085Z,96716.69
2023-06-01T10:52:39.358Z,96711.53
2023-06-01T10:55:12.294Z,96716.78
2023-06-01T10:57:39.993Z,96712.63
2023-06-01T11:00:27.631Z,96704.03
2023-06-01T11:03:04.541Z,96705.47
2023-06-01T11:05:35.113Z,96690.91
2023-06-01T11:08:01.653Z,96696.09
2023-06-01T11:10:50.037Z,96696.78
2023-06-01T11:13:20.333Z,96702.78
2023-06-01T11:16:15.382Z,96696.47
2023-06-01T11:18:45.058Z,96690.28
2023-06-01T11:21:17.451Z,96685.00
2023-06-01T11:23:48.831Z,96688.41
2023-06-01T11:26:17.666Z,96685.03
2023-06-01T11:28:45.440Z,96679.31
2023-06-01T11:31:14.704Z,96682.38
2023-06-01T11:33:42.007Z,96681.56
2023-06-01T11:36:11.337Z,96673.31
2023-06-01T11:38:42.862Z,96674.50
2023-06-01T11:41:10.160Z,96666.16
2023-06-01T11:43:37.085Z,96665.22
2023-06-01T11:46:17.755Z,96661.16
2023-06-01T11:49:15.908Z,96665.66
2023-06-01T11:51:43.473Z,96658.44
2023-06-01T11:54:10.143Z,96655.50
2023-06-01T11:56:40.261Z,96662.00
2023-06-01T11:59:10.764Z,96650.16
2023-06-01T12:01:46.141Z,96656.06
2023-06-01T12:04:17.379Z,96651.38
2023-06-01T12:06:44.110Z,96644.03
2023-06-01T12:09:11.670Z,96651.63
2023-06-01T12:11:39.155Z,96646.13
2023-06-01T12:14:07.353Z,96644.03
2023-06-01T12:16:59.617Z,96638.16
2023-06-01T12:19:27.943Z,96645.91
2023-06-01T12:21:56.552Z,96630.03
2023-06-01T12:24:36.630Z,96624.09
2023-06-01T12:27:14.011Z,96635.75
2023-06-01T12:29:44.850Z,96639.06
2023-06-01T12:32:13.509Z,96632.06
2023-06-01T12:34:41.441Z,96638.09
2023-06-01T12:37:18.455Z,96629.97
2023-06-01T12:39:53.322Z,96624.06
2023-06-01T12:42:20.142Z,96629.03
2023-06-01T12:44:53.725Z,96616.22
2023-06-01T12:47:20.266Z,96622.56
2023-06-01T12:50:07.454Z,96617.38
2023-06-01T12:52:33.999Z,96614.97
2023-06-01T12:55:00.494Z,96615.06
2023-06-01T12:57:27.007Z,96616.31
2023-06-01T12:59:53.553Z,96603.03
2023-06-01T13:02:20.470Z,96604.44
2023-06-01T13:04:47.015Z,96597.91
2023-06-01T13:07:13.566Z,96592.94
2023-06-01T13:09:40.196Z,96604.56
2023-06-01T13:12:07.114Z,96596.09
2023-06-01T13:14:33.921Z,96593.16
2023-06-01T13:17:00.522Z,96590.56
2023-06-01T13:19:27.105Z,96593.72
2023-06-01T13:21:53.757Z,96590.47
2023-06-01T13:24:20.889Z,96582.88
2023-06-01T13:26:48.263Z,96587.47
2023-06-01T13:29:14.795Z,96583.66
2023-06-01T13:31:41.400Z,96577.47
2023-06-01T13:34:08.153Z,96576.94
2023-06-01T13:36:36.148Z,96576.59
2023-06-01T13:39:05.466Z,96583.66
2023-06-01T13:41:32.327Z,96573.75
2023-06-01T13:43:59.047Z,96572.72
2023-06-01T13:46:26.154Z,96570.69
2023-06-01T13:48:52.755Z,96564.91
2023-06-01T13:51:19.450Z,96563.41
2023-06-01T13:53:46.053Z,96563.41
2023-06-01T13:56:12.586Z,96549.72
2023-06-01T13:58:39.026Z,96558.78
2023-06-01T14:01:05.737Z,96554.78
2023-06-01T14:03:32.831Z,96543.44
2023-06-01T14:05:59.336Z,96538.34
2023-06-01T14:08:26.011Z,96533.19
2023-06-01T14:10:52.533Z,96536.03
2023-06-01T14:13:19.004Z,96533.72
2023-06-01T14:15:45.535Z,96522.91
2023-06-01T14:18:12.333Z,96523.44
2023-06-01T14:20:39.272Z,96516.25
2023-06-01T14:23:06.090Z,96516.13
2023-06-01T14:25:32.525Z,96519.81
2023-06-01T14:27:58.972Z,96509.97
2023-06-01T14:30:27.563Z,96501.09
2023-06-01T14:32:54.646Z,96509.19
2023-06-01T14:35:21.786Z,96503.41
2023-06-01T14:37:50.184Z,96507.72
2023-06-01T14:40:17.293Z,96502.88
2023-06-01T14:42:43.943Z,96503.13
2023-06-01T14:45:12.376Z,96495.63
2023-06-01T14:47:42.383Z,96501.75
2023-06-01T14:50:09.713Z,96491.78
2023-06-01T14:52:36.362Z,96493.28
2023-06-01T14:55:02.828Z,96486.94
2023-06-01T14:57:29.436Z,96487.94
2023-06-01T15:00:04.113Z,96481.91
2023-06-01T15:02:31.335Z,96477.69
2023-06-01T15:04:58.011Z,96476.75
2023-06-01T15:07:24.727Z,96473.78
2023-06-01T15:09:51.276Z,96478.00
2023-06-01T15:12:17.806Z,96480.22
2023-06-01T15:14:44.361Z,96474.34
2023-06-01T15:17:11.690Z,96477.81
2023-06-01T15:19:38.258Z,96474.25
2023-06-01T15:22:05.668Z,96470.25
2023-06-01T15:24:32.528Z,96465.31
2023-06-01T15:26:59.081Z,96468.44
2023-06-01T15:29:25.716Z,96462.72
2023-06-01T15:31:52.324Z,96468.72
2023-06-01T15:34:20.581Z,96474.19
2023-06-01T15:36:47.509Z,96467.00
2023-06-01T15:39:14.487Z,96469.06
2023-06-01T15:41:41.150Z,96464.41
2023-06-01T15:44:08.127Z,96465.09
2023-06-01T15:46:35.297Z,96468.22
2023-06-01T15:49:01.940Z,96463.38
2023-06-01T15:51:29.009Z,96465.16
2023-06-01T15:53:55.524Z,96459.50
2023-06-01T15:56:22.889Z,96459.34
2023-06-01T15:58:50.979Z,96454.19
2023-06-01T16:01:29.205Z,96456.81
2023-06-01T16:03:57.101Z,96452.31
2023-06-01T16:06:23.796Z,96449.03
2023-06-01T16:08:52.753Z,96457.94
2023-06-01T16:11:20.445Z,96452.69
2023-06-01T16:13:47.244Z,96444.06
2023-06-01T16:16:15.856Z,96443.31
2023-06-01T16:18:43.193Z,96445.28
2023-06-01T16:21:09.861Z,96443.78
2023-06-01T16:23:36.792Z,96438.81
2023-06-01T16:26:03.356Z,96441.44
2023-06-01T16:28:30.039Z,96436.50
2023-06-01T16:30:56.543Z,96446.22
2023-06-01T16:33:23.013Z,96440.41
2023-06-01T16:35:49.514Z,96433.13
2023-06-01T16:38:16.030Z,96436.38
2023-06-01T16:40:42.611Z,96436.59
2023-06-01T16:43:09.456Z,96435.28
2023-06-01T16:45:36.042Z,96432.97
2023-06-01T16:48:03.087Z,96437.09
2023-06-01T16:50:29.664Z,96431.38
2023-06-01T16:52:57.341Z,96433.22
2023-06-01T16:55:23.903Z,96425.63
2023-06-01T16:57:50.828Z,96427.50
2023-06-01T17:00:17.460Z,96430.69
2023-06-01T17:02:44.322Z,96424.94
2023-06-01T17:05:11.284Z,96434.28
2023-06-01T17:07:37.776Z,96432.25
2023-06-01T17:10:04.982Z,96434.09
2023-06-01T17:12:32.431Z,96429.53
2023-06-01T17:14:58.961Z,96429.06
2023-06-01T17:17:26.675Z,96422.31
2023-06-01T17:19:55.276Z,96426.22
2023-06-01T17:22:22.032Z,96425.69
2023-06-01T17:24:48.768Z,96423.91
2023-06-01T17:27:15.572Z,96425.09
2023-06-01T17:29:42.325Z,96425.38
2023-06-01T17:32:08.787Z,96420.75
2023-06-01T17:34:35.411Z,96424.66
2023-06-01T17:37:02.163Z,96424.16
2023-06-01T17:39:28.707Z,96428.03
2023-06-01T17:41:56.927Z,96422.41
2023-06-01T17:44:26.237Z,96415.81
2023-06-01T17:46:53.569Z,96415.03
2023-06-01T17:49:20.325Z,96423.84
2023-06-01T17:51:46.939Z,96422.59
2023-06-01T17:54:13.682Z,96427.09
2023-06-01T17:56:40.287Z,96426.50
2023-06-01T17:59:06.879Z,96415.44
2023-06-01T18:01:33.554Z,96408.34
2023-06-01T18:04:00.186Z,96411.06
2023-06-01T18:06:26.978Z,96412.31
2023-06-01T18:08:53.722Z,96412.72
2023-06-01T18:11:20.611Z,96409.44
2023-06-01T18:13:50.234Z,96417.78
2023-06-01T18:16:16.872Z,96407.63
2023-06-01T18:18:43.550Z,96400.13
2023-06-01T18:21:10.139Z,96402.56
2023-06-01T18:23:36.690Z,96404.50
2023-06-01T18:26:03.692Z,96399.00
2023-06-01T18:28:30.499Z,96406.22
2023-06-01T18:30:57.388Z,96409.88
2023-06-01T18:33:23.969Z,96415.22
2023-06-01T18:35:50.524Z,96410.16
2023-06-01T18:38:20.149Z,96416.38
2023-06-01T18:40:46.844Z,96415.28
2023-06-01T18:43:14.911Z,96416.56
2023-06-01T18:45:44.271Z,96415.28
2023-06-01T18:48:10.836Z,96412.13
2023-06-01T18:50:37.468Z,96404.72
2023-06-01T18:53:04.047Z,96417.81
2023-06-01T18:55:30.569Z,96414.69
2023-06-01T18:57:57.067Z,96417.44
2023-06-01T19:00:23.616Z,96412.75
2023-06-01T19:02:50.192Z,96413.66
2023-06-01T19:05:23.962Z,96424.53
2023-06-01T19:07:50.570Z,96417.91
2023-06-01T19:10:47.859Z,96417.06
2023-06-01T19:13:17.350Z,96415.81
2023-06-01T19:15:43.829Z,96422.97
2023-06-01T19:18:10.727Z,96424.19
2023-06-01T19:20:40.681Z,96430.59
2023-06-01T19:23:11.184Z,96427.44
2023-06-01T19:25:38.368Z,96430.25
2023-06-01T19:28:05.023Z,96418.50
2023-06-01T19:30:33.424Z,96428.09
2023-06-01T19:33:00.231Z,96433.81
2023-06-01T19:35:29.072Z,96424.66
2023-06-01T19:37:56.718Z,96430.09
2023-06-01T19:40:23.565Z,96426.56
2023-06-01T19:42:50.310Z,96436.16
2023-06-01T19:45:22.892Z,96434.97
2023-06-01T19:47:51.947Z,96437.09
2023-06-01T19:50:25.068Z,96443.19
2023-06-01T19:52:51.925Z,96439.22
2023-06-01T19:55:18.551Z,96443.94
2023-06-01T19:57:45.101Z,96439.38
2023-06-01T20:00:12.383Z,96443.69
2023-06-01T20:02:45.701Z,96446.34
2023-06-01T20:05:18.933Z,96446.56
2023-06-01T20:07:46.134Z,96441.69
2023-06-01T20:10:20.118Z,96446.97
2023-06-01T20:12:46.663Z,96444.63
2023-06-01T20:15:13.107Z,96446.38
2023-06-01T20:17:40.422Z,96445.75
2023-06-01T20:20:07.577Z,96436.47
2023-06-01T20:22:34.557Z,96444.44
2023-06-01T20:25:03.439Z,96442.28
2023-06-01T20:27:33.190Z,96445.00
2023-06-01T20:30:03.280Z,96441.63
2023-06-01T20:32:30.640Z,96441.94
2023-06-01T20:34:57.272Z,96441.28
2023-06-01T20:37:23.858Z,96434.63
2023-06-01T20:39:52.641Z,96446.94
2023-06-01T20:42:19.178Z,96445.47
2023-06-01T20:44:46.171Z,96440.41
2023-06-01T20:47:17.937Z,96434.81
2023-06-01T20:49:44.636Z,96440.94
2023-06-01T20:52:13.154Z,96437.72
2023-06-01T20:54:39.694Z,96447.22
2023-06-01T20:57:06.410Z,96431.09
2023-06-01T20:59:33.306Z,96439.00
2023-06-01T21:02:09.803Z,96429.59
2023-06-01T21:04:41.112Z,96435.63
2023-06-01T21:07:08.550Z,96439.38
2023-06-01T21:09:35.269Z,96431.50
2023-06-01T21:12:03.233Z,96428.25
2023-06-01T21:14:31.786Z,96440.63
2023-06-01T21:16:58.870Z,96446.16
2023-06-01T21:19:25.626Z,96450.53
2023-06-01T21:21:52.367Z,96450.81
2023-06-01T21:24:19.060Z,96457.78
2023-06-01T21:26:46.052Z,96447.78
2023-06-01T21:29:12.711Z,96452.38
2023-06-01T21:31:39.544Z,96455.06
2023-06-01T21:34:06.244Z,96452.56
2023-06-01T21:36:32.880Z,96455.50
2023-06-01T21:38:59.622Z,96449.53
2023-06-01T21:41:26.471Z,96447.41
2023-06-01T21:43:53.327Z,96450.22
2023-06-01T21:46:20.042Z,96461.69
2023-06-01T21:48:46.802Z,96461.84
2023-06-01T21:51:13.486Z,96446.66
2023-06-01T21:53:40.130Z,96459.94
2023-06-01T21:56:07.003Z,96454.25
2023-06-01T21:58:38.114Z,96457.97
2023-06-01T22:01:06.417Z,96455.75
2023-06-01T22:03:33.577Z,96461.16
2023-06-01T22:06:00.266Z,96472.75
2023-06-01T22:08:27.045Z,96463.25
2023-06-01T22:10:53.786Z,96463.44
2023-06-01T22:13:20.610Z,96464.50
2023-06-01T22:15:47.393Z,96464.78
2023-06-01T22:18:14.315Z,96470.13
2023-06-01T22:20:41.269Z,96467.88
2023-06-01T22:23:09.637Z,96459.44
2023-06-01T22:25:40.781Z,96461.34
2023-06-01T22:28:07.603Z,96469.16
2023-06-01T22:30:34.276Z,96464.06
2023-06-01T22:33:01.669Z,96475.31
2023-06-01T22:35:28.524Z,96469.56
2023-06-01T22:37:55.379Z,96470.50
2023-06-01T22:40:22.218Z,96457.78
2023-06-01T22:42:50.040Z,96469.78
2023-06-01T22:45:17.644Z,96482.16
2023-06-01T22:47:44.277Z,96472.00
2023-06-01T22:50:12.971Z,96482.50
2023-06-01T22:52:39.841Z,96478.19
2023-06-01T22:55:07.066Z,96476.56
2023-06-01T22:57:34.273Z,96472.47
2023-06-01T23:00:00.995Z,96478.56
2023-06-01T23:02:27.875Z,96470.06
2023-06-01T23:04:54.608Z,96459.88
2023-06-01T23:07:21.939Z,96472.03
2023-06-01T23:09:48.521Z,96474.66
2023-06-01T23:12:15.190Z,96473.88
2023-06-01T23:14:44.573Z,96469.72
2023-06-01T23:17:15.919Z,96472.34
2023-06-01T23:19:43.957Z,96470.00
2023-06-01T23:22:13.148Z,96472.63
2023-06-01T23:24:40.226Z,96472.88
2023-06-01T23:27:07.632Z,96472.03
2023-06-01T23:29:34.410Z,96468.72
2023-06-01T23:32:01.074Z,96466.25
2023-06-01T23:34:27.739Z,96465.50
2023-06-01T23:36:56.277Z,96452.78
2023-06-01T23:39:24.327Z,96466.50
2023-06-01T23:41:51.301Z,96461.41
2023-06-01T23:44:18.619Z,96460.66
2023-06-01T23:46:46.214Z,96466.72
2023-06-01T23:49:14.070Z,96464.41
2023-06-01T23:51:41.117Z,96468.69
2023-06-01T23:54:07.985Z,96466.34
2023-06-01T23:56:34.815Z,96467.19
2023-06-01T23:59:01.751Z,96459.66
